sensor_id;sensor_type;location;lat;lon;timestamp;temperature;humidity
11762;DHT22;5938;47.098;15.474;2024-02-16T00:00:51;0.50;99.90
11762;DHT22;5938;47.098;15.474;2024-02-16T00:04:57;0.20;99.90
11762;DHT22;5938;47.098;15.474;2024-02-16T00:09:01;0.40;99.90
11762;DHT22;5938;47.098;15.474;2024-02-16T00:13:05;0.30;99.90
11762;DHT22;5938;47.098;15.474;2024-02-16T00:17:08;0.20;99.90
11762;DHT22;5938;47.098;15.474;2024-02-16T00:21:13;0.20;99.90
11762;DHT22;5938;47.098;15.474;2024-02-16T00:25:19;0.10;99.90
11762;DHT22;5938;47.098;15.474;2024-02-16T00:29:23;0.20;99.90
11762;DHT22;5938;47.098;15.474;2024-02-16T00:33:27;0.10;99.90
11762;DHT22;5938;47.098;15.474;2024-02-16T00:37:32;0.10;99.90
11762;DHT22;5938;47.098;15.474;2024-02-16T00:41:36;0.10;99.90
11762;DHT22;5938;47.098;15.474;2024-02-16T00:45:39;0.20;99.90
11762;DHT22;5938;47.098;15.474;2024-02-16T00:49:46;0.00;99.90
11762;DHT22;5938;47.098;15.474;2024-02-16T00:53:51;0.00;99.90
11762;DHT22;5938;47.098;15.474;2024-02-16T00:57:55;-0.10;99.90
11762;DHT22;5938;47.098;15.474;2024-02-16T01:01:59;-0.10;99.90
11762;DHT22;5938;47.098;15.474;2024-02-16T01:06:02;-0.10;99.90
11762;DHT22;5938;47.098;15.474;2024-02-16T01:10:08;-0.20;99.90
11762;DHT22;5938;47.098;15.474;2024-02-16T01:14:11;-0.20;99.90
11762;DHT22;5938;47.098;15.474;2024-02-16T01:18:16;-0.10;99.90
11762;DHT22;5938;47.098;15.474;2024-02-16T01:22:20;-0.20;99.90
11762;DHT22;5938;47.098;15.474;2024-02-16T01:26:25;-0.20;99.90
11762;DHT22;5938;47.098;15.474;2024-02-16T01:30:30;-0.10;99.90
11762;DHT22;5938;47.098;15.474;2024-02-16T01:34:34;-0.20;99.90
11762;DHT22;5938;47.098;15.474;2024-02-16T01:38:38;-0.30;99.90
11762;DHT22;5938;47.098;15.474;2024-02-16T01:42:43;-0.40;99.90
11762;DHT22;5938;47.098;15.474;2024-02-16T01:46:47;-0.30;99.90
11762;DHT22;5938;47.098;15.474;2024-02-16T01:50:50;-0.30;99.90
11762;DHT22;5938;47.098;15.474;2024-02-16T01:54:54;-0.20;99.90
11762;DHT22;5938;47.098;15.474;2024-02-16T01:58:59;-0.40;99.90
11762;DHT22;5938;47.098;15.474;2024-02-16T02:03:02;-0.50;99.90
11762;DHT22;5938;47.098;15.474;2024-02-16T02:07:11;-0.80;99.90
11762;DHT22;5938;47.098;15.474;2024-02-16T02:11:17;-0.40;99.90
11762;DHT22;5938;47.098;15.474;2024-02-16T02:15:23;-0.40;99.90
11762;DHT22;5938;47.098;15.474;2024-02-16T02:19:26;-0.50;99.90
11762;DHT22;5938;47.098;15.474;2024-02-16T02:23:32;-0.40;99.90
11762;DHT22;5938;47.098;15.474;2024-02-16T02:27:36;-0.60;99.90
11762;DHT22;5938;47.098;15.474;2024-02-16T02:31:39;-0.60;99.90
11762;DHT22;5938;47.098;15.474;2024-02-16T02:35:43;-0.50;99.90
11762;DHT22;5938;47.098;15.474;2024-02-16T02:39:50;-0.40;99.90
11762;DHT22;5938;47.098;15.474;2024-02-16T02:43:53;-0.60;99.90
11762;DHT22;5938;47.098;15.474;2024-02-16T02:47:56;-0.60;99.90
11762;DHT22;5938;47.098;15.474;2024-02-16T02:52:02;-0.40;99.90
11762;DHT22;5938;47.098;15.474;2024-02-16T02:56:07;-0.40;99.90
11762;DHT22;5938;47.098;15.474;2024-02-16T03:00:11;-0.40;99.90
11762;DHT22;5938;47.098;15.474;2024-02-16T03:04:17;-0.50;99.90
11762;DHT22;5938;47.098;15.474;2024-02-16T03:08:22;-0.70;99.90
11762;DHT22;5938;47.098;15.474;2024-02-16T03:12:26;-0.80;99.90
11762;DHT22;5938;47.098;15.474;2024-02-16T03:16:30;-0.80;99.90
11762;DHT22;5938;47.098;15.474;2024-02-16T03:20:34;-0.60;99.90
11762;DHT22;5938;47.098;15.474;2024-02-16T03:24:39;-0.70;99.90
11762;DHT22;5938;47.098;15.474;2024-02-16T03:28:45;-0.80;99.90
11762;DHT22;5938;47.098;15.474;2024-02-16T03:32:50;-0.60;99.90
11762;DHT22;5938;47.098;15.474;2024-02-16T03:36:54;-0.60;99.90
11762;DHT22;5938;47.098;15.474;2024-02-16T03:40:57;-0.70;99.90
11762;DHT22;5938;47.098;15.474;2024-02-16T03:45:02;-0.70;99.90
11762;DHT22;5938;47.098;15.474;2024-02-16T03:49:05;-0.50;99.90
11762;DHT22;5938;47.098;15.474;2024-02-16T03:53:11;-0.50;99.90
11762;DHT22;5938;47.098;15.474;2024-02-16T03:57:16;-0.60;99.90
11762;DHT22;5938;47.098;15.474;2024-02-16T04:01:23;-0.50;99.90
11762;DHT22;5938;47.098;15.474;2024-02-16T04:05:26;-0.60;99.90
11762;DHT22;5938;47.098;15.474;2024-02-16T04:09:34;-0.90;99.90
11762;DHT22;5938;47.098;15.474;2024-02-16T04:13:38;-0.80;99.90
11762;DHT22;5938;47.098;15.474;2024-02-16T04:17:42;-0.90;99.90
11762;DHT22;5938;47.098;15.474;2024-02-16T04:21:46;-0.90;99.90
11762;DHT22;5938;47.098;15.474;2024-02-16T04:25:49;-0.90;99.90
11762;DHT22;5938;47.098;15.474;2024-02-16T04:29:52;-0.90;99.90
11762;DHT22;5938;47.098;15.474;2024-02-16T04:33:57;-1.00;99.90
11762;DHT22;5938;47.098;15.474;2024-02-16T04:38:01;-0.80;99.90
11762;DHT22;5938;47.098;15.474;2024-02-16T04:42:05;-1.00;99.90
11762;DHT22;5938;47.098;15.474;2024-02-16T04:46:14;-0.90;99.90
11762;DHT22;5938;47.098;15.474;2024-02-16T04:50:20;-0.90;99.90
11762;DHT22;5938;47.098;15.474;2024-02-16T04:54:24;-1.10;99.90
11762;DHT22;5938;47.098;15.474;2024-02-16T04:58:27;-1.20;99.90
11762;DHT22;5938;47.098;15.474;2024-02-16T05:02:31;-1.20;99.90
11762;DHT22;5938;47.098;15.474;2024-02-16T05:06:40;-1.20;99.90
11762;DHT22;5938;47.098;15.474;2024-02-16T05:10:43;-1.10;99.90
11762;DHT22;5938;47.098;15.474;2024-02-16T05:14:48;-1.10;99.90
11762;DHT22;5938;47.098;15.474;2024-02-16T05:18:52;-1.10;99.90
11762;DHT22;5938;47.098;15.474;2024-02-16T05:22:56;-1.30;99.90
11762;DHT22;5938;47.098;15.474;2024-02-16T05:27:00;-1.30;99.90
11762;DHT22;5938;47.098;15.474;2024-02-16T05:31:13;-1.20;99.90
11762;DHT22;5938;47.098;15.474;2024-02-16T05:35:21;-1.20;99.90
11762;DHT22;5938;47.098;15.474;2024-02-16T05:39:26;-1.20;99.90
11762;DHT22;5938;47.098;15.474;2024-02-16T05:43:33;-1.80;99.90
11762;DHT22;5938;47.098;15.474;2024-02-16T05:47:37;-1.50;99.90
11762;DHT22;5938;47.098;15.474;2024-02-16T05:51:41;-1.30;99.90
11762;DHT22;5938;47.098;15.474;2024-02-16T05:55:47;-1.10;99.90
11762;DHT22;5938;47.098;15.474;2024-02-16T05:59:51;-1.10;99.90
11762;DHT22;5938;47.098;15.474;2024-02-16T06:03:57;-1.00;99.90
11762;DHT22;5938;47.098;15.474;2024-02-16T06:08:01;-0.90;99.90
11762;DHT22;5938;47.098;15.474;2024-02-16T06:12:08;-1.00;99.90
11762;DHT22;5938;47.098;15.474;2024-02-16T06:16:12;-0.90;99.90
11762;DHT22;5938;47.098;15.474;2024-02-16T06:20:15;-0.50;99.90
11762;DHT22;5938;47.098;15.474;2024-02-16T06:24:22;-0.40;99.90
11762;DHT22;5938;47.098;15.474;2024-02-16T06:28:28;-0.50;99.90
11762;DHT22;5938;47.098;15.474;2024-02-16T06:32:32;-0.30;99.90
11762;DHT22;5938;47.098;15.474;2024-02-16T06:36:41;-0.20;99.90
11762;DHT22;5938;47.098;15.474;2024-02-16T06:40:46;-0.20;99.90
11762;DHT22;5938;47.098;15.474;2024-02-16T06:44:52;-0.10;99.90
11762;DHT22;5938;47.098;15.474;2024-02-16T06:48:56;0.20;99.90
11762;DHT22;5938;47.098;15.474;2024-02-16T06:52:59;0.20;99.90
11762;DHT22;5938;47.098;15.474;2024-02-16T06:57:03;-0.10;99.90
11762;DHT22;5938;47.098;15.474;2024-02-16T07:01:12;0.10;99.90
11762;DHT22;5938;47.098;15.474;2024-02-16T07:05:15;0.10;99.90
11762;DHT22;5938;47.098;15.474;2024-02-16T07:09:20;0.10;99.90
11762;DHT22;5938;47.098;15.474;2024-02-16T07:13:24;0.40;99.90
11762;DHT22;5938;47.098;15.474;2024-02-16T07:17:29;0.20;99.90
11762;DHT22;5938;47.098;15.474;2024-02-16T07:21:32;0.20;99.90
11762;DHT22;5938;47.098;15.474;2024-02-16T07:25:36;0.20;99.90
11762;DHT22;5938;47.098;15.474;2024-02-16T07:29:39;0.30;99.90
11762;DHT22;5938;47.098;15.474;2024-02-16T07:33:44;0.50;99.90
11762;DHT22;5938;47.098;15.474;2024-02-16T07:37:49;0.50;99.90
11762;DHT22;5938;47.098;15.474;2024-02-16T07:41:54;0.60;99.90
11762;DHT22;5938;47.098;15.474;2024-02-16T07:45:58;0.70;99.90
11762;DHT22;5938;47.098;15.474;2024-02-16T07:50:03;0.80;99.90
11762;DHT22;5938;47.098;15.474;2024-02-16T07:54:09;1.10;99.90
11762;DHT22;5938;47.098;15.474;2024-02-16T07:58:12;1.20;99.90
11762;DHT22;5938;47.098;15.474;2024-02-16T08:02:16;1.30;99.90
11762;DHT22;5938;47.098;15.474;2024-02-16T08:06:26;1.50;99.90
11762;DHT22;5938;47.098;15.474;2024-02-16T08:10:30;1.60;99.90
11762;DHT22;5938;47.098;15.474;2024-02-16T08:14:34;1.80;99.90
11762;DHT22;5938;47.098;15.474;2024-02-16T08:18:37;2.00;99.90
11762;DHT22;5938;47.098;15.474;2024-02-16T08:22:45;2.20;99.90
11762;DHT22;5938;47.098;15.474;2024-02-16T08:26:48;2.50;99.90
11762;DHT22;5938;47.098;15.474;2024-02-16T08:30:51;2.90;99.90
11762;DHT22;5938;47.098;15.474;2024-02-16T08:34:56;3.30;99.90
11762;DHT22;5938;47.098;15.474;2024-02-16T08:39:02;3.50;99.90
11762;DHT22;5938;47.098;15.474;2024-02-16T08:43:05;3.90;99.90
11762;DHT22;5938;47.098;15.474;2024-02-16T08:47:10;4.30;99.90
11762;DHT22;5938;47.098;15.474;2024-02-16T08:51:14;4.60;99.90
11762;DHT22;5938;47.098;15.474;2024-02-16T08:55:19;4.80;99.90
11762;DHT22;5938;47.098;15.474;2024-02-16T08:59:23;5.10;99.90
11762;DHT22;5938;47.098;15.474;2024-02-16T09:03:28;5.30;99.90
11762;DHT22;5938;47.098;15.474;2024-02-16T09:07:35;5.80;99.90
11762;DHT22;5938;47.098;15.474;2024-02-16T09:11:41;6.70;99.90
11762;DHT22;5938;47.098;15.474;2024-02-16T09:15:47;7.90;99.90
11762;DHT22;5938;47.098;15.474;2024-02-16T09:19:53;9.20;99.90
11762;DHT22;5938;47.098;15.474;2024-02-16T09:23:58;9.80;99.90
11762;DHT22;5938;47.098;15.474;2024-02-16T09:28:05;9.90;99.90
11762;DHT22;5938;47.098;15.474;2024-02-16T09:32:18;10.00;99.90
11762;DHT22;5938;47.098;15.474;2024-02-16T09:36:21;9.90;99.90
11762;DHT22;5938;47.098;15.474;2024-02-16T09:40:26;9.90;99.90
11762;DHT22;5938;47.098;15.474;2024-02-16T09:44:32;10.10;99.90
11762;DHT22;5938;47.098;15.474;2024-02-16T09:48:40;9.90;99.90
11762;DHT22;5938;47.098;15.474;2024-02-16T09:52:50;9.70;99.90
11762;DHT22;5938;47.098;15.474;2024-02-16T09:56:57;9.90;99.90
11762;DHT22;5938;47.098;15.474;2024-02-16T10:01:02;11.70;99.90
11762;DHT22;5938;47.098;15.474;2024-02-16T10:05:11;14.00;99.90
11762;DHT22;5938;47.098;15.474;2024-02-16T10:09:23;14.10;94.70
11762;DHT22;5938;47.098;15.474;2024-02-16T10:13:27;16.30;93.40
11762;DHT22;5938;47.098;15.474;2024-02-16T10:17:32;16.90;89.00
11762;DHT22;5938;47.098;15.474;2024-02-16T10:21:36;16.60;84.50
11762;DHT22;5938;47.098;15.474;2024-02-16T10:25:40;17.50;84.80
11762;DHT22;5938;47.098;15.474;2024-02-16T10:29:44;19.10;80.80
11762;DHT22;5938;47.098;15.474;2024-02-16T10:33:59;17.80;79.70
11762;DHT22;5938;47.098;15.474;2024-02-16T10:38:06;17.00;78.80
11762;DHT22;5938;47.098;15.474;2024-02-16T10:42:15;15.30;80.60
11762;DHT22;5938;47.098;15.474;2024-02-16T10:46:24;15.80;80.10
11762;DHT22;5938;47.098;15.474;2024-02-16T10:50:31;15.70;80.20
11762;DHT22;5938;47.098;15.474;2024-02-16T10:54:37;15.80;79.60
11762;DHT22;5938;47.098;15.474;2024-02-16T10:58:42;16.70;78.50
11762;DHT22;5938;47.098;15.474;2024-02-16T11:02:54;17.20;79.00
11762;DHT22;5938;47.098;15.474;2024-02-16T11:07:01;17.80;77.10
11762;DHT22;5938;47.098;15.474;2024-02-16T11:11:10;19.10;74.50
11762;DHT22;5938;47.098;15.474;2024-02-16T11:15:16;20.70;71.70
11762;DHT22;5938;47.098;15.474;2024-02-16T11:19:20;20.70;68.30
11762;DHT22;5938;47.098;15.474;2024-02-16T11:23:27;20.20;71.00
11762;DHT22;5938;47.098;15.474;2024-02-16T11:27:32;20.70;68.70
11762;DHT22;5938;47.098;15.474;2024-02-16T11:31:38;22.20;64.80
11762;DHT22;5938;47.098;15.474;2024-02-16T11:35:52;21.90;65.20
11762;DHT22;5938;47.098;15.474;2024-02-16T11:39:58;23.20;63.00
11762;DHT22;5938;47.098;15.474;2024-02-16T11:44:02;24.30;58.50
11762;DHT22;5938;47.098;15.474;2024-02-16T11:48:07;22.90;59.50
11762;DHT22;5938;47.098;15.474;2024-02-16T11:52:12;23.30;59.40
11762;DHT22;5938;47.098;15.474;2024-02-16T11:56:23;25.10;57.30
11762;DHT22;5938;47.098;15.474;2024-02-16T12:00:27;25.50;53.90
11762;DHT22;5938;47.098;15.474;2024-02-16T12:04:32;27.20;53.00
11762;DHT22;5938;47.098;15.474;2024-02-16T12:08:49;28.10;50.10
11762;DHT22;5938;47.098;15.474;2024-02-16T12:12:58;28.10;50.10
11762;DHT22;5938;47.098;15.474;2024-02-16T12:17:07;26.40;52.40
11762;DHT22;5938;47.098;15.474;2024-02-16T12:21:10;25.90;54.30
11762;DHT22;5938;47.098;15.474;2024-02-16T12:25:14;25.40;54.20
11762;DHT22;5938;47.098;15.474;2024-02-16T12:29:19;25.30;55.60
11762;DHT22;5938;47.098;15.474;2024-02-16T12:33:22;24.30;56.60
11762;DHT22;5938;47.098;15.474;2024-02-16T12:37:26;26.20;54.40
11762;DHT22;5938;47.098;15.474;2024-02-16T12:41:30;27.40;52.20
11762;DHT22;5938;47.098;15.474;2024-02-16T12:45:35;27.60;50.60
11762;DHT22;5938;47.098;15.474;2024-02-16T12:49:39;26.50;52.70
11762;DHT22;5938;47.098;15.474;2024-02-16T12:53:43;26.40;52.70
11762;DHT22;5938;47.098;15.474;2024-02-16T12:57:46;24.30;55.60
11762;DHT22;5938;47.098;15.474;2024-02-16T13:01:53;24.40;55.80
11762;DHT22;5938;47.098;15.474;2024-02-16T13:05:56;24.90;55.10
11762;DHT22;5938;47.098;15.474;2024-02-16T13:10:00;25.40;54.40
11762;DHT22;5938;47.098;15.474;2024-02-16T13:14:05;25.20;54.70
11762;DHT22;5938;47.098;15.474;2024-02-16T13:18:10;26.10;53.40
11762;DHT22;5938;47.098;15.474;2024-02-16T13:22:14;26.30;54.10
11762;DHT22;5938;47.098;15.474;2024-02-16T13:26:17;27.20;50.20
11762;DHT22;5938;47.098;15.474;2024-02-16T13:30:21;28.40;48.50
11762;DHT22;5938;47.098;15.474;2024-02-16T13:34:26;27.00;49.90
11762;DHT22;5938;47.098;15.474;2024-02-16T13:38:29;27.70;49.80
11762;DHT22;5938;47.098;15.474;2024-02-16T13:42:34;28.10;50.10
11762;DHT22;5938;47.098;15.474;2024-02-16T13:46:38;27.70;49.10
11762;DHT22;5938;47.098;15.474;2024-02-16T13:50:46;27.30;49.50
11762;DHT22;5938;47.098;15.474;2024-02-16T13:54:50;23.80;53.90
11762;DHT22;5938;47.098;15.474;2024-02-16T13:58:54;19.60;61.60
11762;DHT22;5938;47.098;15.474;2024-02-16T14:02:58;17.00;68.20
11762;DHT22;5938;47.098;15.474;2024-02-16T14:07:03;15.40;73.10
11762;DHT22;5938;47.098;15.474;2024-02-16T14:11:08;14.60;76.50
11762;DHT22;5938;47.098;15.474;2024-02-16T14:15:14;14.10;77.80
11762;DHT22;5938;47.098;15.474;2024-02-16T14:19:25;13.70;78.70
11762;DHT22;5938;47.098;15.474;2024-02-16T14:23:30;13.30;80.50
11762;DHT22;5938;47.098;15.474;2024-02-16T14:27:34;13.20;82.50
11762;DHT22;5938;47.098;15.474;2024-02-16T14:31:39;13.00;82.60
11762;DHT22;5938;47.098;15.474;2024-02-16T14:35:42;12.90;83.20
11762;DHT22;5938;47.098;15.474;2024-02-16T14:39:47;12.70;84.20
11762;DHT22;5938;47.098;15.474;2024-02-16T14:43:50;12.70;85.00
11762;DHT22;5938;47.098;15.474;2024-02-16T14:47:53;12.70;85.00
11762;DHT22;5938;47.098;15.474;2024-02-16T14:51:58;12.60;84.90
11762;DHT22;5938;47.098;15.474;2024-02-16T14:56:04;12.30;87.50
11762;DHT22;5938;47.098;15.474;2024-02-16T15:00:09;12.10;87.50
11762;DHT22;5938;47.098;15.474;2024-02-16T15:04:14;12.10;87.50
11762;DHT22;5938;47.098;15.474;2024-02-16T15:08:18;11.90;89.30
11762;DHT22;5938;47.098;15.474;2024-02-16T15:12:23;11.70;90.00
11762;DHT22;5938;47.098;15.474;2024-02-16T15:16:28;11.40;90.70
11762;DHT22;5938;47.098;15.474;2024-02-16T15:20:32;11.20;91.60
11762;DHT22;5938;47.098;15.474;2024-02-16T15:24:37;11.00;91.50
11762;DHT22;5938;47.098;15.474;2024-02-16T15:28:42;11.00;91.50
11762;DHT22;5938;47.098;15.474;2024-02-16T15:32:49;10.90;92.10
11762;DHT22;5938;47.098;15.474;2024-02-16T15:37:00;10.60;93.00
11762;DHT22;5938;47.098;15.474;2024-02-16T15:41:10;10.30;94.00
11762;DHT22;5938;47.098;15.474;2024-02-16T15:45:18;9.90;95.40
11762;DHT22;5938;47.098;15.474;2024-02-16T15:49:24;9.70;95.70
11762;DHT22;5938;47.098;15.474;2024-02-16T15:53:37;9.50;96.30
11762;DHT22;5938;47.098;15.474;2024-02-16T15:57:47;9.20;96.90
11762;DHT22;5938;47.098;15.474;2024-02-16T16:01:52;9.10;97.50
11762;DHT22;5938;47.098;15.474;2024-02-16T16:05:57;8.90;98.00
11762;DHT22;5938;47.098;15.474;2024-02-16T16:10:02;8.70;98.50
11762;DHT22;5938;47.098;15.474;2024-02-16T16:14:05;8.40;99.10
11762;DHT22;5938;47.098;15.474;2024-02-16T16:18:11;8.20;99.40
11762;DHT22;5938;47.098;15.474;2024-02-16T16:22:15;8.00;99.90
11762;DHT22;5938;47.098;15.474;2024-02-16T16:26:22;7.70;99.90
11762;DHT22;5938;47.098;15.474;2024-02-16T16:30:41;7.40;99.90
11762;DHT22;5938;47.098;15.474;2024-02-16T16:34:45;7.30;99.90
11762;DHT22;5938;47.098;15.474;2024-02-16T16:38:49;7.10;99.90
11762;DHT22;5938;47.098;15.474;2024-02-16T16:42:52;6.90;99.90
11762;DHT22;5938;47.098;15.474;2024-02-16T16:46:55;6.70;99.90
11762;DHT22;5938;47.098;15.474;2024-02-16T16:51:00;6.50;99.90
11762;DHT22;5938;47.098;15.474;2024-02-16T16:55:05;6.30;99.90
11762;DHT22;5938;47.098;15.474;2024-02-16T16:59:09;6.20;99.90
11762;DHT22;5938;47.098;15.474;2024-02-16T17:03:14;6.10;99.90
11762;DHT22;5938;47.098;15.474;2024-02-16T17:07:19;5.80;99.90
11762;DHT22;5938;47.098;15.474;2024-02-16T17:11:23;5.70;99.90
11762;DHT22;5938;47.098;15.474;2024-02-16T17:15:27;5.70;99.90
11762;DHT22;5938;47.098;15.474;2024-02-16T17:19:35;5.50;99.90
11762;DHT22;5938;47.098;15.474;2024-02-16T17:23:41;5.40;99.90
11762;DHT22;5938;47.098;15.474;2024-02-16T17:27:46;5.30;99.90
11762;DHT22;5938;47.098;15.474;2024-02-16T17:31:50;5.10;99.90
11762;DHT22;5938;47.098;15.474;2024-02-16T17:35:55;5.00;99.90
11762;DHT22;5938;47.098;15.474;2024-02-16T17:40:01;5.00;99.90
11762;DHT22;5938;47.098;15.474;2024-02-16T17:44:06;4.90;99.90
11762;DHT22;5938;47.098;15.474;2024-02-16T17:48:11;4.80;99.90
11762;DHT22;5938;47.098;15.474;2024-02-16T17:52:15;4.70;99.90
11762;DHT22;5938;47.098;15.474;2024-02-16T17:56:21;4.60;99.90
11762;DHT22;5938;47.098;15.474;2024-02-16T18:00:24;4.50;99.90
11762;DHT22;5938;47.098;15.474;2024-02-16T18:04:28;4.40;99.90
11762;DHT22;5938;47.098;15.474;2024-02-16T18:08:33;4.40;99.90
11762;DHT22;5938;47.098;15.474;2024-02-16T18:12:39;4.20;99.90
11762;DHT22;5938;47.098;15.474;2024-02-16T18:16:43;4.10;99.90
11762;DHT22;5938;47.098;15.474;2024-02-16T18:20:48;4.10;99.90
11762;DHT22;5938;47.098;15.474;2024-02-16T18:24:55;4.10;99.90
11762;DHT22;5938;47.098;15.474;2024-02-16T18:29:01;3.90;99.90
11762;DHT22;5938;47.098;15.474;2024-02-16T18:33:08;3.90;99.90
11762;DHT22;5938;47.098;15.474;2024-02-16T18:37:16;3.80;99.90
11762;DHT22;5938;47.098;15.474;2024-02-16T18:41:20;3.80;99.90
11762;DHT22;5938;47.098;15.474;2024-02-16T18:45:26;3.70;99.90
11762;DHT22;5938;47.098;15.474;2024-02-16T18:49:30;3.60;99.90
11762;DHT22;5938;47.098;15.474;2024-02-16T18:53:34;3.60;99.90
11762;DHT22;5938;47.098;15.474;2024-02-16T18:57:38;3.40;99.90
11762;DHT22;5938;47.098;15.474;2024-02-16T19:01:44;3.30;99.90
11762;DHT22;5938;47.098;15.474;2024-02-16T19:05:48;3.30;99.90
11762;DHT22;5938;47.098;15.474;2024-02-16T19:09:52;3.30;99.90
11762;DHT22;5938;47.098;15.474;2024-02-16T19:13:56;3.20;99.90
11762;DHT22;5938;47.098;15.474;2024-02-16T19:18:02;3.20;99.90
11762;DHT22;5938;47.098;15.474;2024-02-16T19:22:10;3.20;99.90
11762;DHT22;5938;47.098;15.474;2024-02-16T19:26:15;3.20;99.90
11762;DHT22;5938;47.098;15.474;2024-02-16T19:30:21;3.10;99.90
11762;DHT22;5938;47.098;15.474;2024-02-16T19:34:31;3.00;99.90
11762;DHT22;5938;47.098;15.474;2024-02-16T19:38:39;2.90;99.90
11762;DHT22;5938;47.098;15.474;2024-02-16T19:42:45;2.80;99.90
11762;DHT22;5938;47.098;15.474;2024-02-16T19:46:49;2.80;99.90
11762;DHT22;5938;47.098;15.474;2024-02-16T19:50:54;2.70;99.90
11762;DHT22;5938;47.098;15.474;2024-02-16T19:54:59;2.70;99.90
11762;DHT22;5938;47.098;15.474;2024-02-16T19:59:06;2.70;99.90
11762;DHT22;5938;47.098;15.474;2024-02-16T20:03:10;2.70;99.90
11762;DHT22;5938;47.098;15.474;2024-02-16T20:07:18;2.60;99.90
11762;DHT22;5938;47.098;15.474;2024-02-16T20:11:26;2.60;99.90
11762;DHT22;5938;47.098;15.474;2024-02-16T20:15:30;2.60;99.90
11762;DHT22;5938;47.098;15.474;2024-02-16T20:19:36;2.60;99.90
11762;DHT22;5938;47.098;15.474;2024-02-16T20:23:41;2.60;99.90
11762;DHT22;5938;47.098;15.474;2024-02-16T20:27:46;2.50;99.90
11762;DHT22;5938;47.098;15.474;2024-02-16T20:31:49;2.60;99.90
11762;DHT22;5938;47.098;15.474;2024-02-16T20:35:55;2.50;99.90
11762;DHT22;5938;47.098;15.474;2024-02-16T20:40:01;2.40;99.90
11762;DHT22;5938;47.098;15.474;2024-02-16T20:44:07;2.50;99.90
11762;DHT22;5938;47.098;15.474;2024-02-16T20:48:11;2.50;99.90
11762;DHT22;5938;47.098;15.474;2024-02-16T20:52:15;2.50;99.90
11762;DHT22;5938;47.098;15.474;2024-02-16T20:56:23;2.50;99.90
11762;DHT22;5938;47.098;15.474;2024-02-16T21:00:27;2.50;99.90
11762;DHT22;5938;47.098;15.474;2024-02-16T21:04:30;2.50;99.90
11762;DHT22;5938;47.098;15.474;2024-02-16T21:08:36;2.50;99.90
11762;DHT22;5938;47.098;15.474;2024-02-16T21:12:46;2.40;99.90
11762;DHT22;5938;47.098;15.474;2024-02-16T21:16:50;2.50;99.90
11762;DHT22;5938;47.098;15.474;2024-02-16T21:20:53;2.70;99.90
11762;DHT22;5938;47.098;15.474;2024-02-16T21:24:58;2.70;99.90
11762;DHT22;5938;47.098;15.474;2024-02-16T21:29:05;2.70;99.90
11762;DHT22;5938;47.098;15.474;2024-02-16T21:33:09;2.70;99.90
11762;DHT22;5938;47.098;15.474;2024-02-16T21:37:15;2.70;99.90
11762;DHT22;5938;47.098;15.474;2024-02-16T21:41:20;2.80;99.90
11762;DHT22;5938;47.098;15.474;2024-02-16T21:45:27;2.90;99.90
11762;DHT22;5938;47.098;15.474;2024-02-16T21:49:31;2.80;99.90
11762;DHT22;5938;47.098;15.474;2024-02-16T21:53:35;2.90;99.90
11762;DHT22;5938;47.098;15.474;2024-02-16T21:57:39;2.90;99.90
11762;DHT22;5938;47.098;15.474;2024-02-16T22:01:46;3.00;99.90
11762;DHT22;5938;47.098;15.474;2024-02-16T22:05:49;3.00;99.90
11762;DHT22;5938;47.098;15.474;2024-02-16T22:09:53;3.00;99.90
11762;DHT22;5938;47.098;15.474;2024-02-16T22:13:56;3.00;99.90
11762;DHT22;5938;47.098;15.474;2024-02-16T22:18:01;3.10;99.90
11762;DHT22;5938;47.098;15.474;2024-02-16T22:22:06;3.10;99.90
11762;DHT22;5938;47.098;15.474;2024-02-16T22:26:10;3.10;99.90
11762;DHT22;5938;47.098;15.474;2024-02-16T22:30:20;3.00;99.90
11762;DHT22;5938;47.098;15.474;2024-02-16T22:34:24;3.10;99.90
11762;DHT22;5938;47.098;15.474;2024-02-16T22:38:29;3.20;99.90
11762;DHT22;5938;47.098;15.474;2024-02-16T22:42:35;3.20;99.90
11762;DHT22;5938;47.098;15.474;2024-02-16T22:46:39;3.20;99.90
11762;DHT22;5938;47.098;15.474;2024-02-16T22:50:44;3.20;99.90
11762;DHT22;5938;47.098;15.474;2024-02-16T22:54:49;3.20;99.90
11762;DHT22;5938;47.098;15.474;2024-02-16T22:58:52;3.20;99.90
11762;DHT22;5938;47.098;15.474;2024-02-16T23:02:55;3.20;99.90
11762;DHT22;5938;47.098;15.474;2024-02-16T23:07:00;3.20;99.90
11762;DHT22;5938;47.098;15.474;2024-02-16T23:11:04;3.10;99.90
11762;DHT22;5938;47.098;15.474;2024-02-16T23:15:09;3.10;99.90
11762;DHT22;5938;47.098;15.474;2024-02-16T23:19:13;3.10;99.90
11762;DHT22;5938;47.098;15.474;2024-02-16T23:23:18;3.20;99.90
11762;DHT22;5938;47.098;15.474;2024-02-16T23:27:23;3.10;99.90
11762;DHT22;5938;47.098;15.474;2024-02-16T23:31:26;3.10;99.90
11762;DHT22;5938;47.098;15.474;2024-02-16T23:35:29;3.10;99.90
11762;DHT22;5938;47.098;15.474;2024-02-16T23:39:34;3.10;99.90
11762;DHT22;5938;47.098;15.474;2024-02-16T23:43:39;3.00;99.90
11762;DHT22;5938;47.098;15.474;2024-02-16T23:47:42;3.00;99.90
11762;DHT22;5938;47.098;15.474;2024-02-16T23:51:46;3.00;99.90
11762;DHT22;5938;47.098;15.474;2024-02-16T23:55:51;3.00;99.90
11762;DHT22;5938;47.098;15.474;2024-02-16T23:59:56;3.00;99.90
